Time;durP1;ratioP1;P1;durP2;ratioP2;P2;SDS_P1;SDS_P2;PMS_P1;PMS_P2;Temp;Humidity;BMP_temperature;BMP_pressure;BME280_temperature;BME280_humidity;BME280_pressure;Samples;Min_cycle;Max_cycle;Signal;HPM_P1;HPM_P2
2022/02/09 00:00:09;;;;;;;22.77;13.63;;;8.70;99.90;;;;;;4992678;28;20489;-86
2022/02/09 00:02:49;;;;;;;19.90;13.30;;;8.80;99.90;;;;;;4982068;28;20774;-86
2022/02/09 00:05:28;;;;;;;20.60;13.27;;;8.80;99.90;;;;;;4989719;28;20917;-89
2022/02/09 00:08:01;;;;;;;25.20;15.73;;;8.80;99.90;;;;;;4984737;28;20416;-88
2022/02/09 00:10:31;;;;;;;21.93;15.20;;;8.70;99.90;;;;;;4984984;28;20485;-89
2022/02/09 00:13:13;;;;;;;20.17;13.60;;;8.80;99.90;;;;;;4986787;28;20453;-89
2022/02/09 00:15:49;;;;;;;20.83;14.70;;;8.80;99.90;;;;;;4991640;28;20506;-88
2022/02/09 00:18:25;;;;;;;23.30;14.63;;;8.80;99.90;;;;;;4994971;28;20421;-88
2022/02/09 00:26:53;;;;;;;25.30;15.50;;;8.70;99.90;;;;;;4980389;28;21043;-88
2022/02/09 00:32:32;;;;;;;21.67;14.07;;;8.70;99.90;;;;;;4980428;28;20428;-89
2022/02/09 00:38:17;;;;;;;25.43;15.83;;;8.60;99.90;;;;;;4981002;28;20472;-89
2022/02/09 00:40:58;;;;;;;22.17;15.30;;;8.70;99.90;;;;;;4989537;28;20804;-88
2022/02/09 01:38:56;;;;;;;22.60;15.30;;;8.60;99.90;;;;;;5136122;28;20409;-88
2022/02/09 01:55:28;;;;;;;30.43;15.60;;;8.60;99.90;;;;;;5074962;28;20436;-87
2022/02/09 01:57:55;;;;;;;22.90;14.33;;;8.60;99.90;;;;;;5075785;28;20408;-87
2022/02/09 02:00:21;;;;;;;24.10;14.37;;;8.60;99.90;;;;;;5110934;28;20466;-87
2022/02/09 02:02:51;;;;;;;21.20;13.57;;;8.60;99.90;;;;;;5155037;27;20452;-88
2022/02/09 02:05:18;;;;;;;27.30;15.03;;;8.70;99.90;;;;;;5154846;28;20452;-88
2022/02/09 02:07:50;;;;;;;29.17;16.03;;;8.60;99.90;;;;;;5155610;28;20417;-87
2022/02/09 02:10:21;;;;;;;28.47;16.00;;;8.60;99.90;;;;;;5154172;28;20436;-87
2022/02/09 02:13:10;;;;;;;25.90;16.10;;;8.60;99.90;;;;;;5140594;28;20446;-88
2022/02/09 02:16:10;;;;;;;26.20;15.10;;;8.70;99.90;;;;;;5131966;28;20432;-88
2022/02/09 02:18:37;;;;;;;31.40;14.63;;;8.60;99.90;;;;;;5122226;28;20953;-88
2022/02/09 02:21:21;;;;;;;23.70;15.80;;;8.60;99.90;;;;;;5121127;28;20470;-88
2022/02/09 02:26:47;;;;;;;25.10;15.80;;;8.50;99.90;;;;;;5121890;28;20789;-88
2022/02/09 02:29:42;;;;;;;20.60;13.53;;;8.40;99.90;;;;;;5122226;28;20513;-88
2022/02/09 02:32:30;;;;;;;21.63;14.13;;;8.70;99.90;;;;;;5128357;28;20537;-88
2022/02/09 02:35:37;;;;;;;30.43;15.43;;;8.60;99.90;;;;;;5138182;28;20451;-88
2022/02/09 02:38:43;;;;;;;20.93;14.20;;;8.60;99.90;;;;;;5122777;28;20420;-88
2022/02/09 02:42:14;;;;;;;19.20;14.20;;;8.60;99.90;;;;;;5122048;28;20439;-88
2022/02/09 02:47:29;;;;;;;22.77;14.50;;;8.60;99.90;;;;;;5135088;28;20410;-88
2022/02/09 02:58:55;;;;;;;17.63;12.97;;;8.60;99.90;;;;;;5135588;28;20400;-88
2022/02/09 03:13:26;;;;;;;17.20;12.77;;;8.80;99.90;;;;;;5032816;28;20431;-87
2022/02/09 03:16:32;;;;;;;13.43;10.63;;;10.60;99.90;;;;;;5034898;28;20422;-87
2022/02/09 03:22:24;;;;;;;13.80;11.67;;;8.70;99.90;;;;;;5025014;28;20871;-87
2022/02/09 04:15:01;;;;;;;27.27;18.90;;;8.70;99.90;;;;;;4885123;29;20462;-88
2022/02/09 04:40:13;;;;;;;19.70;15.40;;;8.80;99.90;;;;;;4956518;28;20514;-86
2022/02/09 06:02:09;;;;;;;;;;;;;;;;;;;;;
2022/02/09 06:22:09;;;;;;;9.73;7.77;;;8.90;99.90;;;;;;4764368;30;20447;-87
2022/02/09 06:38:41;;;;;;;13.20;7.57;;;8.90;99.90;;;;;;4995281;28;20471;-87
2022/02/09 06:47:14;;;;;;;7.50;6.67;;;9.30;99.90;;;;;;5075439;28;20469;-82
2022/02/09 06:49:42;;;;;;;7.57;6.87;;;8.90;99.90;;;;;;5079682;28;20445;-81
2022/02/09 06:52:09;;;;;;;9.23;6.60;;;8.90;99.90;;;;;;5079506;28;20449;-82
2022/02/09 06:54:44;;;;;;;7.73;6.87;;;9.00;99.90;;;;;;5081177;28;20471;-82
2022/02/09 06:57:24;;;;;;;12.40;7.67;;;9.00;99.90;;;;;;5061732;28;20459;-81
2022/02/09 06:59:52;;;;;;;10.87;7.23;;;9.00;99.90;;;;;;5061537;28;20473;-82
2022/02/09 07:02:19;;;;;;;9.20;7.30;;;9.00;99.90;;;;;;5060750;28;20873;-82
2022/02/09 07:04:49;;;;;;;8.07;6.87;;;8.80;99.90;;;;;;5060211;28;20520;-82
2022/02/09 07:07:17;;;;;;;8.63;7.53;;;9.10;99.90;;;;;;5061750;28;20476;-82
2022/02/09 07:09:44;;;;;;;8.77;7.20;;;9.10;99.90;;;;;;5062036;28;20457;-82
2022/02/09 07:12:10;;;;;;;12.20;7.90;;;9.20;99.90;;;;;;5060795;28;20420;-82
2022/02/09 07:15:22;;;;;;;8.07;7.17;;;9.30;99.90;;;;;;5063785;28;20427;-83
2022/02/09 07:17:49;;;;;;;12.20;8.60;;;;;;;;;;5063054;28;20967;-82
2022/02/09 07:20:19;;;;;;;14.03;10.10;;;9.20;99.90;;;;;;5062324;28;20480;-83
2022/02/09 07:22:48;;;;;;;18.80;11.00;;;9.20;99.90;;;;;;5063849;28;20485;-82
2022/02/09 07:25:16;;;;;;;19.73;13.73;;;9.00;99.90;;;;;;5060744;28;20524;-81
2022/02/09 07:27:50;;;;;;;18.90;10.90;;;9.10;99.90;;;;;;5061334;28;20454;-81
2022/02/09 07:30:22;;;;;;;14.13;10.83;;;9.20;99.90;;;;;;5069717;28;20792;-80
2022/02/09 07:32:50;;;;;;;10.50;8.63;;;9.20;99.90;;;;;;5060448;28;20465;-83
2022/02/09 07:35:17;;;;;;;9.30;7.83;;;9.20;99.90;;;;;;5060191;28;20834;-82
2022/02/09 07:37:43;;;;;;;8.70;7.73;;;9.20;99.90;;;;;;5060360;28;20945;-82
2022/02/09 07:40:11;;;;;;;10.17;7.40;;;9.20;99.90;;;;;;5061000;28;20474;-83
2022/02/09 07:42:44;;;;;;;7.00;6.23;;;9.20;99.90;;;;;;5062788;28;20516;-82
2022/02/09 07:45:38;;;;;;;7.77;6.57;;;9.20;99.90;;;;;;5078191;28;20473;-80
2022/02/09 07:48:25;;;;;;;8.97;7.87;;;9.30;99.90;;;;;;5076305;28;20480;-80
2022/02/09 07:51:13;;;;;;;7.83;7.00;;;9.30;99.90;;;;;;5073912;28;20448;-81
2022/02/09 07:53:48;;;;;;;8.67;6.60;;;9.30;99.90;;;;;;5064016;28;20885;-81
2022/02/09 07:56:16;;;;;;;7.30;6.60;;;9.30;99.90;;;;;;5063524;28;20518;-82
2022/02/09 07:58:42;;;;;;;11.30;7.70;;;9.40;99.90;;;;;;5062762;28;20446;-81
2022/02/09 08:01:09;;;;;;;7.97;7.10;;;9.40;99.90;;;;;;5061687;28;20449;-82
2022/02/09 08:03:37;;;;;;;6.63;6.13;;;9.10;99.90;;;;;;5060966;28;20829;-82
2022/02/09 08:06:04;;;;;;;6.90;6.30;;;9.40;99.90;;;;;;5062294;28;20489;-82
2022/02/09 08:08:33;;;;;;;6.20;5.70;;;9.40;99.90;;;;;;5061334;28;20442;-82
2022/02/09 08:11:12;;;;;;;6.93;6.33;;;9.40;99.90;;;;;;5060994;28;20423;-82
2022/02/09 08:27:24;;;;;;;4.30;3.90;;;9.30;99.90;;;;;;5060023;28;20433;-82
2022/02/09 08:30:03;;;;;;;5.20;4.70;;;9.40;99.90;;;;;;5060113;28;20532;-82
2022/02/09 08:32:40;;;;;;;5.93;4.77;;;9.40;99.90;;;;;;5062754;28;20460;-82
2022/02/09 08:35:09;;;;;;;5.40;4.90;;;9.30;99.90;;;;;;5059434;28;20475;-82
2022/02/09 08:37:35;;;;;;;5.57;5.07;;;9.20;99.90;;;;;;5059353;28;20477;-82
2022/02/09 08:40:02;;;;;;;6.00;5.33;;;9.30;99.90;;;;;;5059636;28;20519;-82
2022/02/09 08:42:29;;;;;;;6.30;5.63;;;9.30;99.90;;;;;;5064341;28;20505;-82
2022/02/09 08:45:32;;;;;;;7.90;5.53;;;8.80;99.90;;;;;;5067997;28;20492;-86
2022/02/09 08:47:59;;;;;;;6.00;5.40;;;10.40;99.90;;;;;;5033682;28;20453;-82
2022/02/09 08:50:27;;;;;;;7.67;6.30;;;9.30;99.90;;;;;;5067504;28;20449;-82
2022/02/09 08:52:54;;;;;;;10.37;7.57;;;9.30;99.90;;;;;;5070055;28;21010;-80
2022/02/09 08:55:21;;;;;;;7.73;5.93;;;9.30;99.90;;;;;;5073629;28;20457;-81
2022/02/09 08:57:49;;;;;;;6.20;5.60;;;9.40;99.90;;;;;;5071448;28;20453;-79
2022/02/09 09:00:21;;;;;;;8.40;6.57;;;9.60;99.90;;;;;;5064110;28;20429;-78
2022/02/09 09:02:58;;;;;;;7.53;6.30;;;9.40;99.90;;;;;;5069836;28;20458;-82
2022/02/09 09:05:29;;;;;;;19.33;6.50;;;9.40;99.90;;;;;;5058085;28;20497;-80
2022/02/09 09:08:12;;;;;;;6.87;6.27;;;9.50;99.90;;;;;;5058998;28;20741;-79
2022/02/09 09:10:47;;;;;;;8.63;6.37;;;9.50;99.90;;;;;;5058451;28;20434;-80
2022/02/09 09:19:14;;;;;;;10.77;6.80;;;9.50;99.90;;;;;;5042017;28;20434;-80
2022/02/09 10:03:27;;;;;;;6.40;5.80;;;9.90;99.90;;;;;;5057586;28;20431;-82
2022/02/09 10:31:33;;;;;;;6.05;5.13;;;9.60;99.90;;;;;;5060929;28;20417;-82
2022/02/09 10:34:06;;;;;;;5.90;4.67;;;9.70;99.90;;;;;;5061077;28;20210;-82
2022/02/09 10:36:46;;;;;;;6.73;5.47;;;9.70;99.90;;;;;;5064046;28;20836;-83
2022/02/09 10:39:16;;;;;;;7.20;5.10;;;9.80;99.90;;;;;;5062605;28;20452;-83
2022/02/09 10:41:56;;;;;;;8.33;4.43;;;9.80;99.90;;;;;;5058995;28;20440;-81
2022/02/09 10:44:27;;;;;;;7.73;4.40;;;9.90;99.90;;;;;;5057982;28;20437;-80
2022/02/09 10:46:59;;;;;;;5.30;4.50;;;9.90;99.90;;;;;;5059471;28;20488;-83
2022/02/09 10:49:29;;;;;;;7.03;4.63;;;9.90;99.90;;;;;;5062160;28;20422;-82
2022/02/09 10:52:07;;;;;;;5.27;4.00;;;9.90;99.90;;;;;;5067544;28;20437;-83
2022/02/09 10:54:35;;;;;;;11.33;4.50;;;10.00;99.90;;;;;;5062853;28;20449;-82
2022/02/09 10:57:04;;;;;;;5.47;3.43;;;10.00;99.90;;;;;;5062759;28;20447;-82
2022/02/09 10:59:34;;;;;;;3.80;3.50;;;10.00;99.90;;;;;;5062855;28;20941;-81
2022/02/09 11:02:04;;;;;;;3.23;3.00;;;10.00;99.90;;;;;;5063753;28;20823;-81
2022/02/09 11:04:33;;;;;;;9.37;3.40;;;10.00;99.90;;;;;;5061815;28;20509;-81
2022/02/09 11:07:00;;;;;;;5.60;5.00;;;9.90;99.90;;;;;;5072216;28;20491;-83
2022/02/09 11:09:28;;;;;;;6.50;3.93;;;10.00;99.90;;;;;;5076112;28;20430;-84
2022/02/09 11:11:55;;;;;;;12.43;4.33;;;10.00;99.90;;;;;;5075412;28;20434;-84
2022/02/09 11:14:24;;;;;;;3.90;3.40;;;9.80;99.90;;;;;;5075884;28;20464;-84
2022/02/09 11:16:53;;;;;;;6.33;3.07;;;10.00;99.90;;;;;;5075522;28;20470;-84
2022/02/09 11:19:31;;;;;;;4.27;3.77;;;10.10;99.90;;;;;;5074511;28;20453;-83
2022/02/09 11:22:04;;;;;;;10.47;2.53;;;10.10;99.90;;;;;;5074947;28;20464;-84
2022/02/09 11:24:31;;;;;;;6.57;3.33;;;10.10;99.90;;;;;;5062868;28;20864;-84
2022/02/09 11:27:12;;;;;;;3.70;2.90;;;10.10;99.90;;;;;;5062394;28;20572;-85
2022/02/09 11:29:55;;;;;;;7.03;3.80;;;10.10;99.90;;;;;;5074394;28;20460;-83
2022/02/09 11:32:33;;;;;;;4.53;3.70;;;10.10;99.90;;;;;;5078881;28;20455;-82
2022/02/09 11:35:14;;;;;;;4.80;2.97;;;9.90;99.90;;;;;;5078993;28;20468;-83
2022/02/09 11:37:56;;;;;;;5.57;4.13;;;10.30;99.90;;;;;;5078879;28;20445;-82
2022/02/09 11:40:30;;;;;;;5.83;3.87;;;10.30;99.90;;;;;;5078969;28;20429;-82
2022/02/09 11:43:04;;;;;;;5.40;3.67;;;10.20;99.90;;;;;;5077914;28;20429;-81
2022/02/09 11:46:07;;;;;;;5.50;4.40;;;10.20;99.90;;;;;;5077092;28;20457;-84
2022/02/09 11:49:11;;;;;;;4.27;3.87;;;10.30;99.90;;;;;;5062812;28;20429;-83
2022/02/09 11:51:55;;;;;;;4.73;3.10;;;10.30;99.90;;;;;;5059780;28;20448;-81
2022/02/09 12:00:57;;;;;;;3.07;2.87;;;10.30;99.90;;;;;;5058801;28;20436;-81
2022/02/09 12:10:03;;;;;;;3.57;2.37;;;10.30;99.90;;;;;;5066813;28;20419;-83
2022/02/09 12:12:46;;;;;;;3.13;2.63;;;10.30;99.90;;;;;;5066375;28;20441;-83
2022/02/09 12:15:44;;;;;;;9.67;4.13;;;10.40;99.90;;;;;;5074982;28;20940;-83
2022/02/09 12:18:24;;;;;;;3.87;3.40;;;10.30;99.90;;;;;;5070494;28;20452;-82
2022/02/09 12:20:58;;;;;;;3.60;2.70;;;10.40;99.90;;;;;;5063100;28;20437;-82
2022/02/09 12:23:32;;;;;;;6.10;3.60;;;10.30;99.90;;;;;;5060323;28;20445;-82
2022/02/09 12:26:00;;;;;;;2.60;2.40;;;10.30;99.90;;;;;;5058846;28;20530;-83
2022/02/09 12:28:34;;;;;;;3.23;2.53;;;10.30;99.90;;;;;;5059886;28;20458;-83
2022/02/09 12:31:07;;;;;;;3.90;2.50;;;10.30;99.90;;;;;;5060143;28;20486;-83
2022/02/09 12:33:40;;;;;;;6.50;3.03;;;10.10;99.90;;;;;;5058654;28;20480;-83
2022/02/09 12:36:12;;;;;;;2.30;2.20;;;10.20;99.90;;;;;;5058729;28;20515;-83
2022/02/09 12:38:40;;;;;;;3.70;3.40;;;10.20;99.90;;;;;;5060487;28;20445;-83
2022/02/09 12:41:11;;;;;;;3.50;3.20;;;10.10;99.90;;;;;;5060585;28;20862;-83
2022/02/09 12:43:52;;;;;;;3.00;2.80;;;10.00;99.90;;;;;;5060496;28;20433;-83
2022/02/09 12:46:20;;;;;;;4.03;2.97;;;10.10;99.90;;;;;;5061585;28;20520;-83
2022/02/09 12:48:49;;;;;;;3.50;3.20;;;9.40;99.90;;;;;;5059435;28;20797;-83
2022/02/09 12:51:23;;;;;;;4.00;3.13;;;9.90;99.90;;;;;;5057675;28;20457;-83
2022/02/09 12:53:50;;;;;;;3.07;2.77;;;9.90;99.90;;;;;;5057953;28;20480;-83
2022/02/09 12:56:22;;;;;;;3.13;2.83;;;9.90;99.90;;;;;;5059837;28;20556;-83
2022/02/09 12:58:56;;;;;;;3.23;2.93;;;10.20;99.90;;;;;;5059921;28;20502;-83
2022/02/09 13:01:23;;;;;;;3.23;2.93;;;10.20;99.90;;;;;;5060344;28;20445;-80
2022/02/09 13:03:51;;;;;;;4.30;3.80;;;9.90;99.90;;;;;;5059801;28;20436;-81
2022/02/09 13:06:18;;;;;;;7.30;3.33;;;10.00;99.90;;;;;;5058919;28;20485;-82
2022/02/09 13:08:51;;;;;;;3.60;3.30;;;9.90;99.90;;;;;;5057992;28;20445;-83
2022/02/09 13:11:22;;;;;;;3.93;3.13;;;9.90;99.90;;;;;;5059910;28;20440;-82
2022/02/09 13:13:51;;;;;;;3.20;2.90;;;10.00;99.90;;;;;;5060075;28;20552;-82
2022/02/09 13:16:35;;;;;;;3.70;3.40;;;10.00;99.90;;;;;;5058176;28;20469;-83
2022/02/09 13:19:19;;;;;;;4.33;3.80;;;10.00;99.90;;;;;;5057970;28;20454;-82
2022/02/09 13:54:07;;;;;;;3.37;3.07;;;10.10;99.90;;;;;;5099898;28;20480;-83
2022/02/09 14:10:58;;;;;;;3.80;3.20;;;9.90;99.90;;;;;;5102389;28;20443;-82
2022/02/09 14:13:34;;;;;;;3.83;3.30;;;9.90;99.90;;;;;;5098916;28;20507;-82
2022/02/09 14:16:32;;;;;;;3.97;3.67;;;9.90;99.90;;;;;;5098858;28;20471;-82
2022/02/09 14:19:17;;;;;;;2.37;2.17;;;9.90;99.90;;;;;;5105065;28;20799;-83
2022/02/09 14:50:26;;;;;;;3.43;3.13;;;9.80;99.90;;;;;;5100691;28;20498;-82
2022/02/09 14:52:37;;;;;;;4.37;3.10;;;9.80;99.90;;;;;;5098268;28;20481;-82
2022/02/09 14:55:19;;;;;;;3.57;3.27;;;9.80;99.90;;;;;;5100189;28;20486;-81
2022/02/09 14:58:01;;;;;;;3.20;2.93;;;9.70;99.90;;;;;;5098991;28;20432;-82
2022/02/09 15:00:28;;;;;;;8.47;3.47;;;9.70;99.90;;;;;;5098958;28;20426;-83
2022/02/09 15:03:02;;;;;;;3.73;2.80;;;9.60;99.90;;;;;;5101573;28;20426;-83
2022/02/09 15:08:24;;;;;;;3.60;3.23;;;9.50;99.90;;;;;;5107415;28;20448;-81
2022/02/09 15:11:03;;;;;;;3.93;3.63;;;9.40;99.90;;;;;;5106484;28;20462;-82
2022/02/09 15:13:40;;;;;;;3.10;2.80;;;9.50;99.90;;;;;;5105594;28;20448;-81
2022/02/09 15:16:14;;;;;;;5.13;3.43;;;9.40;99.90;;;;;;5106640;28;20460;-82
2022/02/09 15:21:58;;;;;;;3.87;3.57;;;9.20;99.90;;;;;;5082682;28;20382;-83
2022/02/09 15:24:16;;;;;;;4.27;3.87;;;9.10;99.90;;;;;;5081441;28;20447;-83
2022/02/09 15:26:44;;;;;;;5.83;3.60;;;9.00;99.90;;;;;;5081955;28;20508;-83
2022/02/09 15:29:16;;;;;;;5.27;4.73;;;9.00;99.90;;;;;;5083003;28;20429;-82
2022/02/09 15:31:47;;;;;;;8.13;4.20;;;8.90;99.90;;;;;;5082742;28;20452;-82
2022/02/09 15:34:17;;;;;;;4.63;4.23;;;8.90;99.90;;;;;;5082122;28;20513;-83
2022/02/09 15:36:54;;;;;;;10.33;5.67;;;8.90;99.90;;;;;;5081498;28;20479;-84
2022/02/09 15:39:22;;;;;;;5.30;4.80;;;9.00;99.90;;;;;;5081444;28;20407;-81
2022/02/09 15:42:04;;;;;;;5.07;4.43;;;8.90;99.90;;;;;;5081111;28;20460;-81
2022/02/09 16:06:53;;;;;;;5.90;4.93;;;9.00;99.90;;;;;;5080370;28;20455;-83
2022/02/09 16:09:25;;;;;;;4.70;4.30;;;8.90;99.90;;;;;;5080593;28;20512;-82
2022/02/09 16:23:15;;;;;;;5.67;4.90;;;9.00;99.90;;;;;;5042233;28;20438;-84
2022/02/09 16:26:01;;;;;;;6.30;5.70;;;9.10;99.90;;;;;;5066043;28;20465;-85
2022/02/09 16:34:21;;;;;;;4.32;4.00;;;8.80;99.90;;;;;;5083917;28;20468;-84
2022/02/09 16:45:15;;;;;;;5.30;4.80;;;9.30;99.90;;;;;;5088296;28;20492;-85
2022/02/09 16:47:56;;;;;;;5.10;4.70;;;;;;;;;;5085351;28;20448;-85
2022/02/09 16:50:29;;;;;;;5.60;4.90;;;9.20;99.90;;;;;;5087244;28;20504;-84
2022/02/09 16:53:01;;;;;;;6.53;4.63;;;9.10;99.90;;;;;;5085808;28;20433;-84
2022/02/09 16:56:06;;;;;;;4.40;4.10;;;9.20;99.90;;;;;;5084843;28;20473;-84
2022/02/09 17:18:43;;;;;;;5.63;5.13;;;8.90;99.90;;;;;;5094621;28;20452;-83
2022/02/09 17:21:11;;;;;;;4.73;4.33;;;8.70;99.90;;;;;;5081903;28;20493;-83
2022/02/09 17:23:39;;;;;;;5.97;5.00;;;8.90;99.90;;;;;;5081029;28;20329;-84
2022/02/09 17:26:06;;;;;;;5.00;4.60;;;9.00;99.90;;;;;;5080879;28;20446;-82
2022/02/09 17:28:33;;;;;;;4.10;3.80;;;9.00;99.90;;;;;;5085102;28;20198;-83
2022/02/09 17:31:08;;;;;;;8.47;5.77;;;9.10;99.90;;;;;;5084011;28;20506;-85
2022/02/09 17:33:46;;;;;;;5.30;4.90;;;9.10;99.90;;;;;;5080575;28;20445;-83
2022/02/09 17:36:18;;;;;;;4.83;4.43;;;9.10;99.90;;;;;;5080934;28;20458;-83
2022/02/09 17:38:52;;;;;;;4.73;4.33;;;9.10;99.90;;;;;;5082837;28;20444;-82
2022/02/09 17:55:29;;;;;;;6.37;5.77;;;8.90;99.90;;;;;;5081632;28;20298;-83
2022/02/09 17:58:05;;;;;;;5.78;4.80;;;8.80;99.90;;;;;;5080528;28;20430;-82
2022/02/09 18:00:32;;;;;;;6.77;5.57;;;8.80;99.90;;;;;;5081454;28;20186;-83
2022/02/09 18:02:58;;;;;;;7.50;5.10;;;8.80;99.90;;;;;;5082712;28;20453;-83
2022/02/09 18:05:35;;;;;;;5.60;5.10;;;8.70;99.90;;;;;;5084191;28;20441;-82
2022/02/09 18:08:06;;;;;;;6.20;5.60;;;8.80;99.90;;;;;;5083012;28;20256;-82
2022/02/09 18:10:48;;;;;;;5.82;5.22;;;8.80;99.90;;;;;;5084227;28;20427;-83
2022/02/09 18:13:39;;;;;;;6.53;6.03;;;8.80;99.90;;;;;;5085177;28;20196;-82
2022/02/09 18:25:09;;;;;;;8.17;6.17;;;9.00;99.90;;;;;;5088867;28;20449;-83
2022/02/09 18:27:44;;;;;;;6.40;5.80;;;8.90;99.90;;;;;;5084161;28;20545;-83
2022/02/09 18:30:23;;;;;;;9.40;7.43;;;9.00;99.90;;;;;;5080054;28;20507;-82
2022/02/09 18:33:35;;;;;;;7.93;7.00;;;8.90;99.90;;;;;;5083032;28;20191;-83
2022/02/09 18:39:18;;;;;;;6.73;6.13;;;9.00;99.90;;;;;;5081363;28;20773;-82
2022/02/09 18:42:36;;;;;;;9.40;8.23;;;9.00;99.90;;;;;;5081173;28;20764;-83
2022/02/09 18:44:54;;;;;;;8.55;6.40;;;8.90;99.90;;;;;;5081591;28;20434;-82
2022/02/09 19:03:55;;;;;;;7.67;6.30;;;9.10;99.90;;;;;;5086358;28;20407;-82
2022/02/09 19:06:27;;;;;;;8.37;7.13;;;9.10;99.90;;;;;;5088161;28;20503;-82
2022/02/09 19:14:28;;;;;;;7.90;6.67;;;9.20;99.90;;;;;;5089267;28;20427;-82
2022/02/09 19:17:01;;;;;;;6.80;6.20;;;9.20;99.90;;;;;;5091012;28;20484;-85
2022/02/09 19:19:37;;;;;;;8.05;7.13;;;9.20;99.90;;;;;;5089389;28;20422;-81
2022/02/09 19:28:23;;;;;;;7.63;6.80;;;9.20;99.90;;;;;;5086392;28;20469;-83
2022/02/09 19:30:47;;;;;;;6.70;6.00;;;9.20;99.90;;;;;;5085002;28;20437;-81
2022/02/09 19:44:59;;;;;;;7.07;6.47;;;9.20;99.90;;;;;;5089698;28;20443;-82
2022/02/09 19:47:20;;;;;;;7.70;6.90;;;9.20;99.90;;;;;;5085318;28;20487;-84
2022/02/09 19:52:51;;;;;;;7.20;6.50;;;9.20;92.20;;;;;;5075575;28;20426;-81
2022/02/09 19:58:02;;;;;;;6.67;6.00;;;9.20;81.70;;;;;;5080522;28;20404;-82
2022/02/09 20:00:32;;;;;;;7.03;6.27;;;9.30;90.20;;;;;;5083057;28;20445;-83
2022/02/09 20:02:59;;;;;;;8.03;6.33;;;9.20;76.10;;;;;;5082758;28;20433;-83
2022/02/09 20:05:29;;;;;;;6.93;6.20;;;9.20;84.50;;;;;;5083938;28;20486;-82
2022/02/09 20:07:56;;;;;;;7.37;6.67;;;9.20;51.00;;;;;;5084528;28;20467;-82
2022/02/09 20:10:24;;;;;;;7.97;6.40;;;9.20;54.80;;;;;;5084105;28;20456;-82
2022/02/09 20:12:51;;;;;;;11.07;6.80;;;9.40;60.60;;;;;;5082951;28;20935;-83
2022/02/09 20:15:18;;;;;;;7.50;5.93;;;9.30;43.50;;;;;;5082398;28;20820;-83
2022/02/09 20:17:45;;;;;;;6.80;6.13;;;9.30;26.30;;;;;;5082842;28;20429;-83
2022/02/09 20:20:17;;;;;;;7.73;5.70;;;9.20;21.20;;;;;;5083065;28;20452;-82
2022/02/09 20:22:45;;;;;;;8.20;6.90;;;8.40;29.50;;;;;;5086118;28;20432;-83
2022/02/09 20:25:12;;;;;;;8.70;7.23;;;9.20;32.30;;;;;;5084324;28;20503;-82
2022/02/09 20:27:40;;;;;;;8.30;6.40;;;9.40;37.80;;;;;;5083251;28;20477;-82
2022/02/09 20:30:11;;;;;;;12.40;6.80;;;9.20;19.50;;;;;;5083758;28;20491;-83
2022/02/09 20:32:42;;;;;;;10.38;7.47;;;9.40;10.70;;;;;;5081424;28;20420;-84
2022/02/09 20:35:12;;;;;;;10.87;6.37;;;9.30;30.00;;;;;;5083493;28;20456;-83
2022/02/09 20:37:44;;;;;;;7.87;7.07;;;9.20;20.30;;;;;;5081574;28;20461;-83
2022/02/09 20:40:17;;;;;;;8.82;6.60;;;9.30;1.00;;;;;;5081991;28;20904;-83
2022/02/09 20:42:51;;;;;;;7.50;6.80;;;9.20;1.00;;;;;;5081739;28;20187;-82
2022/02/09 20:45:24;;;;;;;9.50;6.83;;;9.20;1.00;;;;;;5081734;28;20470;-83
2022/02/09 20:47:57;;;;;;;7.03;6.30;;;9.20;1.00;;;;;;5082817;28;20482;-82
2022/02/09 20:50:24;;;;;;;7.70;6.30;;;9.20;1.00;;;;;;5079347;28;20438;-80
2022/02/09 20:52:51;;;;;;;8.50;6.60;;;9.20;1.00;;;;;;5080884;28;20448;-81
2022/02/09 20:55:21;;;;;;;7.30;6.60;;;9.10;1.00;;;;;;5081600;28;20478;-84
2022/02/09 20:57:48;;;;;;;7.40;6.63;;;9.10;1.00;;;;;;5082327;28;20520;-82
2022/02/09 21:00:26;;;;;;;7.20;6.10;;;9.10;1.00;;;;;;5082056;28;20511;-86
2022/02/09 21:03:20;;;;;;;11.87;6.33;;;9.10;1.00;;;;;;5081726;28;20576;-91
2022/02/09 21:09:04;;;;;;;6.83;6.10;;;;;;;;;;5019517;28;20494;-82
2022/02/09 21:11:45;;;;;;;7.13;6.43;;;9.10;1.00;;;;;;5080165;28;20800;-82
2022/02/09 21:14:19;;;;;;;7.63;6.80;;;9.20;3.20;;;;;;5081971;28;20452;-82
2022/02/09 21:17:01;;;;;;;9.27;6.20;;;9.20;1.00;;;;;;5081322;28;20480;-82
2022/02/09 21:19:46;;;;;;;14.83;11.20;;;9.10;1.00;;;;;;5081553;28;20440;-82
2022/02/09 21:22:36;;;;;;;8.73;7.40;;;9.10;1.00;;;;;;5081763;28;20433;-83
2022/02/09 21:42:42;;;;;;;8.17;7.40;;;9.00;37.70;;;;;;5078669;28;20440;-83
2022/02/09 21:55:58;;;;;;;7.97;6.40;;;9.10;24.30;;;;;;5091986;28;20636;-82
2022/02/09 21:58:37;;;;;;;8.45;7.57;;;;;;;;;;5091608;28;20421;-81
2022/02/09 22:01:35;;;;;;;8.93;7.43;;;9.10;26.80;;;;;;5091671;28;20429;-83
2022/02/09 22:07:12;;;;;;;8.50;7.60;;;;;;;;;;5086930;28;20885;-83
2022/02/09 22:20:45;;;;;;;8.47;7.37;;;8.90;5.00;;;;;;5086352;28;20435;-82
2022/02/09 22:23:38;;;;;;;10.33;9.10;;;8.90;18.20;;;;;;5084509;28;20403;-82
2022/02/09 22:28:58;;;;;;;10.32;8.50;;;;;;;;;;5088559;28;20449;-84
2022/02/09 22:31:48;;;;;;;10.53;9.30;;;;;;;;;;5095455;28;20450;-82
2022/02/09 22:45:34;;;;;;;10.50;9.10;;;9.10;1.00;;;;;;5088230;28;20436;-83
2022/02/09 22:48:16;;;;;;;10.43;7.93;;;9.00;1.00;;;;;;5086831;28;20942;-82
2022/02/09 22:50:52;;;;;;;10.70;8.87;;;9.10;8.10;;;;;;5086870;28;20774;-82
2022/02/09 22:56:03;;;;;;;11.10;9.23;;;9.10;1.00;;;;;;5087404;28;20418;-83
2022/02/09 22:58:31;;;;;;;11.97;8.60;;;;;;;;;;5086234;28;20474;-83
2022/02/09 23:01:05;;;;;;;12.63;10.13;;;9.10;1.00;;;;;;5086488;28;20864;-83
2022/02/09 23:03:42;;;;;;;12.90;9.43;;;8.60;1.00;;;;;;5085898;28;20411;-83
2022/02/09 23:06:30;;;;;;;10.93;9.03;;;8.80;1.00;;;;;;5085955;28;21003;-82
2022/02/09 23:11:56;;;;;;;10.07;8.23;;;9.20;1.00;;;;;;5085013;28;20930;-82
2022/02/09 23:14:37;;;;;;;11.70;9.30;;;9.00;1.00;;;;;;5085119;28;20414;-82
2022/02/09 23:17:33;;;;;;;12.10;8.80;;;9.00;1.00;;;;;;5085540;28;20468;-82
2022/02/09 23:20:46;;;;;;;10.83;8.10;;;;;;;;;;5085629;28;20414;-82
2022/02/09 23:23:38;;;;;;;11.13;8.57;;;9.00;1.00;;;;;;5085737;28;21003;-83
2022/02/09 23:26:34;;;;;;;16.57;9.43;;;9.10;1.00;;;;;;5088248;28;20472;-83
2022/02/09 23:57:14;;;;;;;8.60;7.57;;;9.10;1.00;;;;;;5093386;28;20490;-81
